AXM5VV RCKH-WBSB
Flight info
| Callsign | AXM5VV |
|---|---|
| Flight time | N/A |
| Altitude | 36000 |
| Route | PARPA1B PARPA A577 KABAM DCT AKOTA M754 SUMLA DCT ADLEX DCT BKLSF DCT VJN80 DCT PIDAN DCT CF03 |
| Aircraft | B738/M-SDE2E3FGHIRWXY/LB1 |
Departure
| Time | 2026-04-28 13:17 |
|---|---|
| Airport | Kaohsiung International Airport (RCKH) |
Arrival
| Time | N/A |
|---|---|
| Airport | Brunei International Airport (WBSB) |
| Time | Latitude | Longitude | Altitude | Speed | Heading |
|---|---|---|---|---|---|
| 2026-04-28 12:29 | 22.57266 | 120.34227 | 44 ft | 0 kts | 271° |
| 2026-04-28 13:04 | 22.57266 | 120.34237 | 44 ft | 3 kts | 271° |
| 2026-04-28 13:05 | 22.57266 | 120.34259 | 44 ft | 3 kts | 271° |
| 2026-04-28 13:05 | 22.57266 | 120.34279 | 44 ft | 1 kts | 271° |
| 2026-04-28 13:05 | 22.57267 | 120.34297 | 43 ft | 3 kts | 293° |
| 2026-04-28 13:05 | 22.57261 | 120.34312 | 42 ft | 3 kts | 328° |
| 2026-04-28 13:06 | 22.57246 | 120.34322 | 40 ft | 3 kts | 352° |
| 2026-04-28 13:06 | 22.57229 | 120.34324 | 40 ft | 0 kts | 1° |
| 2026-04-28 13:09 | 22.57246 | 120.34324 | 41 ft | 6 kts | 1° |
| 2026-04-28 13:09 | 22.57297 | 120.34325 | 33 ft | 8 kts | 1° |
| 2026-04-28 13:09 | 22.57360 | 120.34327 | 44 ft | 10 kts | 1° |
| 2026-04-28 13:10 | 22.57398 | 120.34366 | 44 ft | 8 kts | 72° |
| 2026-04-28 13:10 | 22.57399 | 120.34436 | 44 ft | 13 kts | 91° |
| 2026-04-28 13:10 | 22.57395 | 120.34541 | 44 ft | 14 kts | 92° |
| 2026-04-28 13:10 | 22.57419 | 120.34609 | 44 ft | 7 kts | 32° |
| 2026-04-28 13:11 | 22.57473 | 120.34616 | 44 ft | 9 kts | 1° |
| 2026-04-28 13:11 | 22.57532 | 120.34630 | 44 ft | 9 kts | 32° |
| 2026-04-28 13:11 | 22.57549 | 120.34684 | 44 ft | 8 kts | 79° |
| 2026-04-28 13:11 | 22.57547 | 120.34753 | 44 ft | 10 kts | 92° |
| 2026-04-28 13:12 | 22.57543 | 120.34846 | 44 ft | 15 kts | 92° |
| 2026-04-28 13:12 | 22.57540 | 120.34969 | 44 ft | 17 kts | 92° |
| 2026-04-28 13:12 | 22.57535 | 120.35104 | 44 ft | 18 kts | 92° |
| 2026-04-28 13:12 | 22.57532 | 120.35246 | 43 ft | 20 kts | 92° |
| 2026-04-28 13:13 | 22.57527 | 120.35397 | 43 ft | 21 kts | 92° |
| 2026-04-28 13:13 | 22.57522 | 120.35555 | 44 ft | 21 kts | 91° |
| 2026-04-28 13:13 | 22.57517 | 120.35717 | 44 ft | 22 kts | 92° |
| 2026-04-28 13:13 | 22.57513 | 120.35886 | 44 ft | 23 kts | 91° |
| 2026-04-28 13:14 | 22.57508 | 120.36057 | 44 ft | 23 kts | 91° |
| 2026-04-28 13:14 | 22.57501 | 120.36233 | 44 ft | 24 kts | 92° |
| 2026-04-28 13:14 | 22.57497 | 120.36406 | 44 ft | 22 kts | 92° |
| 2026-04-28 13:14 | 22.57519 | 120.36509 | 44 ft | 8 kts | 39° |
| 2026-04-28 13:15 | 22.57574 | 120.36527 | 45 ft | 12 kts | 5° |
| 2026-04-28 13:15 | 22.57658 | 120.36492 | 43 ft | 13 kts | 306° |
| 2026-04-28 13:15 | 22.57665 | 120.36401 | 45 ft | 12 kts | 273° |
| 2026-04-28 13:15 | 22.57668 | 120.36309 | 46 ft | 13 kts | 272° |
| 2026-04-28 13:16 | 22.57669 | 120.36292 | 46 ft | 0 kts | 272° |
| 2026-04-28 13:16 | 22.57669 | 120.36270 | 46 ft | 13 kts | 272° |
| 2026-04-28 13:16 | 22.57676 | 120.36029 | 44 ft | 56 kts | 272° |
| 2026-04-28 13:16 | 22.57697 | 120.35272 | 45 ft | 142 kts | 271° |
| 2026-04-28 13:17 | 22.57732 | 120.34005 | 356 ft | 178 kts | 271° |
| 2026-04-28 13:17 | 22.57785 | 120.32658 | 1224 ft | 183 kts | 273° |
| 2026-04-28 13:17 | 22.57882 | 120.31246 | 2041 ft | 193 kts | 272° |
| 2026-04-28 13:17 | 22.57940 | 120.29719 | 2627 ft | 214 kts | 269° |
| 2026-04-28 13:18 | 22.57967 | 120.28030 | 3123 ft | 235 kts | 268° |
| 2026-04-28 13:18 | 22.57993 | 120.26191 | 3523 ft | 254 kts | 268° |
| 2026-04-28 13:18 | 22.58031 | 120.24210 | 3853 ft | 272 kts | 269° |
| 2026-04-28 13:18 | 22.57717 | 120.22192 | 4381 ft | 272 kts | 242° |
| 2026-04-28 13:19 | 22.56727 | 120.20476 | 5159 ft | 268 kts | 230° |
| 2026-04-28 13:19 | 22.55578 | 120.18883 | 5880 ft | 269 kts | 228° |
| 2026-04-28 13:19 | 22.54388 | 120.17312 | 6567 ft | 271 kts | 228° |
| 2026-04-28 13:19 | 22.53183 | 120.15737 | 7242 ft | 272 kts | 228° |
| 2026-04-28 13:20 | 22.51971 | 120.14159 | 7888 ft | 275 kts | 229° |
| 2026-04-28 13:20 | 22.50746 | 120.12562 | 8579 ft | 276 kts | 229° |
| 2026-04-28 13:20 | 22.49488 | 120.10981 | 9236 ft | 278 kts | 223° |
| 2026-04-28 13:20 | 22.47843 | 120.09893 | 9887 ft | 281 kts | 199° |
| 2026-04-28 13:21 | 22.45896 | 120.09556 | 10358 ft | 292 kts | 184° |
| 2026-04-28 13:21 | 22.43827 | 120.09461 | 10512 ft | 311 kts | 185° |
| 2026-04-28 13:21 | 22.41613 | 120.09258 | 10675 ft | 328 kts | 187° |
| 2026-04-28 13:21 | 22.39309 | 120.08964 | 11069 ft | 336 kts | 189° |
| 2026-04-28 13:22 | 22.36986 | 120.08632 | 11640 ft | 338 kts | 189° |
| 2026-04-28 13:22 | 22.34648 | 120.08284 | 12194 ft | 341 kts | 189° |
| 2026-04-28 13:22 | 22.32290 | 120.07932 | 12754 ft | 344 kts | 190° |
| 2026-04-28 13:22 | 22.29908 | 120.07578 | 13313 ft | 346 kts | 190° |
| 2026-04-28 13:23 | 22.27508 | 120.07224 | 13843 ft | 350 kts | 190° |
| 2026-04-28 13:23 | 22.25084 | 120.06867 | 14326 ft | 353 kts | 190° |
| 2026-04-28 13:23 | 22.22646 | 120.06508 | 14827 ft | 355 kts | 190° |
| 2026-04-28 13:23 | 22.20190 | 120.06147 | 15313 ft | 357 kts | 190° |
| 2026-04-28 13:24 | 22.17716 | 120.05783 | 15813 ft | 360 kts | 190° |
| 2026-04-28 13:24 | 22.15231 | 120.05419 | 16296 ft | 362 kts | 190° |
| 2026-04-28 13:24 | 22.12721 | 120.05050 | 16770 ft | 365 kts | 190° |
| 2026-04-28 13:24 | 22.10197 | 120.04680 | 17236 ft | 368 kts | 190° |
| 2026-04-28 13:25 | 22.07655 | 120.04307 | 17699 ft | 370 kts | 190° |
| 2026-04-28 13:25 | 22.05091 | 120.03932 | 18179 ft | 373 kts | 190° |
| 2026-04-28 13:25 | 22.02509 | 120.03553 | 18601 ft | 375 kts | 190° |
| 2026-04-28 13:25 | 21.99915 | 120.03163 | 18986 ft | 378 kts | 191° |
| 2026-04-28 13:26 | 21.97306 | 120.02764 | 19370 ft | 381 kts | 191° |
| 2026-04-28 13:26 | 21.94674 | 120.02359 | 19779 ft | 383 kts | 191° |
| 2026-04-28 13:26 | 21.92028 | 120.01955 | 20183 ft | 386 kts | 191° |
| 2026-04-28 13:26 | 21.89360 | 120.01548 | 20585 ft | 389 kts | 191° |
| 2026-04-28 13:27 | 21.86663 | 120.01138 | 20979 ft | 392 kts | 191° |
| 2026-04-28 13:27 | 21.83948 | 120.00725 | 21357 ft | 395 kts | 191° |
| 2026-04-28 13:27 | 21.81216 | 120.00311 | 21772 ft | 398 kts | 191° |
| 2026-04-28 13:27 | 21.78496 | 119.99898 | 22170 ft | 401 kts | 191° |
| 2026-04-28 13:28 | 21.75723 | 119.99478 | 22561 ft | 404 kts | 191° |
| 2026-04-28 13:28 | 21.72924 | 119.99054 | 22971 ft | 407 kts | 191° |
| 2026-04-28 13:28 | 21.70105 | 119.98625 | 23361 ft | 411 kts | 191° |
| 2026-04-28 13:28 | 21.67266 | 119.98192 | 23724 ft | 413 kts | 191° |
| 2026-04-28 13:29 | 21.64408 | 119.97758 | 24098 ft | 415 kts | 191° |
| 2026-04-28 13:29 | 21.61540 | 119.97321 | 24469 ft | 417 kts | 191° |
| 2026-04-28 13:29 | 21.58663 | 119.96884 | 24825 ft | 419 kts | 191° |
| 2026-04-28 13:29 | 21.55760 | 119.96442 | 25182 ft | 422 kts | 191° |
| 2026-04-28 13:30 | 21.52851 | 119.96000 | 25544 ft | 424 kts | 191° |
| 2026-04-28 13:30 | 21.49923 | 119.95555 | 25893 ft | 426 kts | 191° |
| 2026-04-28 13:30 | 21.46979 | 119.95108 | 26249 ft | 428 kts | 191° |
| 2026-04-28 13:30 | 21.44025 | 119.94659 | 26593 ft | 430 kts | 191° |
| 2026-04-28 13:31 | 21.38068 | 119.93756 | 27287 ft | 434 kts | 191° |
| 2026-04-28 13:31 | 21.35068 | 119.93301 | 27627 ft | 436 kts | 191° |
| 2026-04-28 13:31 | 21.32055 | 119.92845 | 27952 ft | 439 kts | 191° |
| 2026-04-28 13:32 | 21.29021 | 119.92386 | 28293 ft | 441 kts | 191° |
| 2026-04-28 13:32 | 21.25977 | 119.91925 | 28619 ft | 443 kts | 191° |
| 2026-04-28 13:32 | 21.22913 | 119.91461 | 28950 ft | 445 kts | 191° |
| 2026-04-28 13:32 | 21.19836 | 119.90996 | 29278 ft | 448 kts | 191° |
| 2026-04-28 13:33 | 21.16746 | 119.90529 | 29600 ft | 450 kts | 191° |
| 2026-04-28 13:33 | 21.13643 | 119.90061 | 29942 ft | 452 kts | 191° |
| 2026-04-28 13:33 | 21.10519 | 119.89589 | 30222 ft | 454 kts | 191° |
| 2026-04-28 13:33 | 21.07380 | 119.89116 | 30526 ft | 456 kts | 191° |
| 2026-04-28 13:34 | 21.04239 | 119.88628 | 30828 ft | 457 kts | 193° |
| 2026-04-28 13:34 | 21.01143 | 119.87858 | 31108 ft | 456 kts | 200° |
| 2026-04-28 13:34 | 20.98162 | 119.86711 | 31427 ft | 455 kts | 206° |
| 2026-04-28 13:34 | 20.95329 | 119.85215 | 31734 ft | 454 kts | 213° |
| 2026-04-28 13:35 | 20.92595 | 119.83521 | 32030 ft | 455 kts | 213° |
| 2026-04-28 13:35 | 20.89841 | 119.81831 | 32324 ft | 457 kts | 213° |
| 2026-04-28 13:35 | 20.87074 | 119.80145 | 32598 ft | 458 kts | 213° |
| 2026-04-28 13:35 | 20.84299 | 119.78461 | 32825 ft | 460 kts | 213° |
| 2026-04-28 13:36 | 20.81512 | 119.76770 | 33035 ft | 461 kts | 213° |
| 2026-04-28 13:36 | 20.78721 | 119.75078 | 33224 ft | 462 kts | 213° |
| 2026-04-28 13:36 | 20.75923 | 119.73381 | 33397 ft | 463 kts | 213° |
| 2026-04-28 13:36 | 20.73129 | 119.71687 | 33579 ft | 463 kts | 213° |
| 2026-04-28 13:37 | 20.70327 | 119.69990 | 33793 ft | 462 kts | 213° |
| 2026-04-28 13:37 | 20.68481 | 119.68872 | 33944 ft | 461 kts | 213° |
| 2026-04-28 13:37 | 20.65694 | 119.67186 | 34119 ft | 461 kts | 213° |
| 2026-04-28 13:37 | 20.62902 | 119.65496 | 34267 ft | 461 kts | 213° |
| 2026-04-28 13:38 | 20.60118 | 119.63813 | 34424 ft | 461 kts | 213° |
| 2026-04-28 13:38 | 20.57322 | 119.62122 | 34586 ft | 461 kts | 214° |
| 2026-04-28 13:38 | 20.54535 | 119.60437 | 34733 ft | 461 kts | 214° |
| 2026-04-28 13:38 | 20.51745 | 119.58752 | 34899 ft | 461 kts | 214° |
| 2026-04-28 13:39 | 20.48955 | 119.57068 | 35060 ft | 461 kts | 214° |
| 2026-04-28 13:39 | 20.46168 | 119.55386 | 35222 ft | 460 kts | 214° |
| 2026-04-28 13:39 | 20.43380 | 119.53704 | 35376 ft | 461 kts | 214° |
| 2026-04-28 13:39 | 20.40592 | 119.52024 | 35547 ft | 461 kts | 214° |
| 2026-04-28 13:40 | 20.37802 | 119.50342 | 35709 ft | 460 kts | 214° |
| 2026-04-28 13:40 | 20.35015 | 119.48663 | 35889 ft | 461 kts | 214° |
| 2026-04-28 13:40 | 20.32258 | 119.47003 | 36065 ft | 460 kts | 214° |
| 2026-04-28 13:40 | 20.29435 | 119.45304 | 36252 ft | 460 kts | 214° |
| 2026-04-28 13:41 | 20.26644 | 119.43625 | 36420 ft | 460 kts | 214° |
| 2026-04-28 13:41 | 20.23857 | 119.41949 | 36595 ft | 460 kts | 214° |
| 2026-04-28 13:41 | 20.21107 | 119.40295 | 36764 ft | 460 kts | 214° |
| 2026-04-28 13:41 | 20.18321 | 119.38621 | 36937 ft | 460 kts | 214° |
| 2026-04-28 13:42 | 20.15529 | 119.36944 | 37103 ft | 460 kts | 214° |
| 2026-04-28 13:42 | 20.12746 | 119.35273 | 37268 ft | 460 kts | 214° |
| 2026-04-28 13:42 | 20.09950 | 119.33594 | 37429 ft | 460 kts | 214° |
| 2026-04-28 13:42 | 20.07160 | 119.31920 | 37599 ft | 460 kts | 214° |
| 2026-04-28 13:43 | 20.04373 | 119.30249 | 37761 ft | 460 kts | 214° |
| 2026-04-28 13:43 | 20.01581 | 119.28575 | 37921 ft | 460 kts | 214° |
| 2026-04-28 13:43 | 19.98794 | 119.26905 | 38079 ft | 460 kts | 214° |
| 2026-04-28 13:43 | 19.96003 | 119.25233 | 38241 ft | 460 kts | 214° |
| 2026-04-28 13:44 | 19.93216 | 119.23564 | 38412 ft | 460 kts | 214° |
| 2026-04-28 13:44 | 19.90427 | 119.21895 | 38560 ft | 460 kts | 214° |
| 2026-04-28 13:44 | 19.87638 | 119.20226 | 38691 ft | 460 kts | 214° |
| 2026-04-28 13:44 | 19.84849 | 119.18558 | 38842 ft | 459 kts | 214° |
| 2026-04-28 13:45 | 19.82066 | 119.16895 | 38977 ft | 459 kts | 214° |
| 2026-04-28 13:45 | 19.79286 | 119.15233 | 39111 ft | 459 kts | 214° |
| 2026-04-28 13:45 | 19.76504 | 119.13571 | 39244 ft | 458 kts | 214° |
| 2026-04-28 13:45 | 19.73728 | 119.11914 | 39378 ft | 458 kts | 214° |
| 2026-04-28 13:46 | 19.70952 | 119.10257 | 39502 ft | 458 kts | 214° |
| 2026-04-28 13:46 | 19.68171 | 119.08598 | 39635 ft | 458 kts | 214° |
| 2026-04-28 13:46 | 19.65434 | 119.06966 | 39766 ft | 457 kts | 214° |
| 2026-04-28 13:46 | 19.62622 | 119.05289 | 39878 ft | 457 kts | 214° |
| 2026-04-28 13:47 | 19.57083 | 119.01989 | 39932 ft | 457 kts | 214° |
| 2026-04-28 13:47 | 19.51578 | 118.98712 | 39935 ft | 456 kts | 214° |
| 2026-04-28 13:48 | 19.46043 | 118.95420 | 39937 ft | 456 kts | 214° |
| 2026-04-28 13:48 | 19.40501 | 118.92125 | 39933 ft | 456 kts | 214° |
| 2026-04-28 13:49 | 19.34964 | 118.88837 | 39934 ft | 456 kts | 213° |
| 2026-04-28 13:49 | 19.29430 | 118.85553 | 39934 ft | 456 kts | 213° |
| 2026-04-28 13:50 | 19.23872 | 118.82291 | 39935 ft | 457 kts | 213° |
| 2026-04-28 13:50 | 19.18352 | 118.78983 | 39933 ft | 456 kts | 214° |
| 2026-04-28 13:51 | 19.12842 | 118.75660 | 39938 ft | 456 kts | 214° |
| 2026-04-28 13:51 | 19.07305 | 118.72372 | 39934 ft | 456 kts | 213° |
| 2026-04-28 13:52 | 19.01766 | 118.69100 | 39938 ft | 456 kts | 213° |
| 2026-04-28 13:52 | 18.96223 | 118.65828 | 39936 ft | 456 kts | 213° |
| 2026-04-28 13:53 | 18.90682 | 118.62560 | 39938 ft | 456 kts | 213° |
| 2026-04-28 13:53 | 18.85140 | 118.59292 | 39935 ft | 456 kts | 213° |
| 2026-04-28 13:54 | 18.79590 | 118.56026 | 39932 ft | 456 kts | 213° |
| 2026-04-28 13:54 | 18.74043 | 118.52765 | 39931 ft | 456 kts | 213° |
| 2026-04-28 13:55 | 18.68498 | 118.49504 | 39933 ft | 457 kts | 213° |
| 2026-04-28 13:55 | 18.62981 | 118.46260 | 39930 ft | 457 kts | 213° |
| 2026-04-28 13:56 | 18.57432 | 118.43000 | 39932 ft | 457 kts | 213° |
| 2026-04-28 13:56 | 18.51840 | 118.39718 | 39933 ft | 457 kts | 213° |
| 2026-04-28 13:57 | 18.46323 | 118.36482 | 39930 ft | 457 kts | 213° |
| 2026-04-28 13:57 | 18.40728 | 118.33203 | 39936 ft | 457 kts | 213° |
| 2026-04-28 13:58 | 18.35209 | 118.29971 | 39933 ft | 457 kts | 213° |
| 2026-04-28 13:58 | 18.29649 | 118.26718 | 39934 ft | 457 kts | 213° |
| 2026-04-28 13:59 | 18.24055 | 118.23447 | 39935 ft | 457 kts | 213° |
| 2026-04-28 13:59 | 18.18534 | 118.20221 | 39935 ft | 457 kts | 213° |
| 2026-04-28 14:00 | 18.12979 | 118.16978 | 39935 ft | 457 kts | 213° |
| 2026-04-28 14:00 | 18.07425 | 118.13738 | 39934 ft | 456 kts | 213° |
| 2026-04-28 14:01 | 18.01868 | 118.10498 | 39931 ft | 456 kts | 213° |
| 2026-04-28 14:01 | 17.96314 | 118.07263 | 39929 ft | 456 kts | 213° |
| 2026-04-28 14:02 | 17.90760 | 118.04030 | 39928 ft | 456 kts | 213° |
| 2026-04-28 14:02 | 17.85211 | 118.00802 | 39931 ft | 456 kts | 213° |
| 2026-04-28 14:03 | 17.82432 | 117.99174 | 41326 ft | 464 kts | 210° |
| 2026-04-28 14:03 | 17.79569 | 117.97495 | 40956 ft | 475 kts | 209° |
| 2026-04-28 14:03 | 17.76683 | 117.95817 | 40579 ft | 476 kts | 209° |
| 2026-04-28 14:03 | 17.73788 | 117.94138 | 40208 ft | 474 kts | 209° |
| 2026-04-28 14:04 | 17.70908 | 117.92469 | 40001 ft | 470 kts | 209° |
| 2026-04-28 14:04 | 17.68052 | 117.90813 | 40002 ft | 470 kts | 209° |
| 2026-04-28 14:04 | 17.62288 | 117.87471 | 40000 ft | 474 kts | 209° |
| 2026-04-28 14:05 | 17.56512 | 117.84125 | 40000 ft | 474 kts | 209° |
| 2026-04-28 14:05 | 17.50745 | 117.80785 | 40000 ft | 474 kts | 209° |
| 2026-04-28 14:06 | 17.44971 | 117.77446 | 40000 ft | 474 kts | 209° |
| 2026-04-28 14:06 | 17.39199 | 117.74111 | 40002 ft | 474 kts | 209° |
| 2026-04-28 14:07 | 17.33430 | 117.70779 | 40000 ft | 474 kts | 209° |
| 2026-04-28 14:07 | 17.27655 | 117.67447 | 40002 ft | 474 kts | 209° |
| 2026-04-28 14:08 | 17.21919 | 117.64138 | 40000 ft | 474 kts | 209° |
| 2026-04-28 14:08 | 17.16145 | 117.60810 | 40000 ft | 474 kts | 209° |
| 2026-04-28 14:09 | 17.10368 | 117.57483 | 40000 ft | 474 kts | 209° |
| 2026-04-28 14:09 | 17.04597 | 117.54162 | 40001 ft | 474 kts | 209° |
| 2026-04-28 14:10 | 17.01354 | 117.52296 | 40001 ft | 474 kts | 209° |